Saturday, October 25, 2014
16:03 UTC
  |  Log In   |  Register Free
Airport Search:

Pike County-Hatcher Field Airport
(KPBX)

Pike County-Hatcher Field Airport Diagram
No Airport Diagram Available

FAA data valid effective September 18, 2014 - November 13, 2014 (unless otherwise noted).

 
 
 
 
 
 
 
 
 
 
 
 
 
 

Current Aviation Weather for Pike County-Hatcher Field Airport (KPBX)

The most recent METAR observation for KPBX was updated at: 1510
METAR Summary (Translated METAR)
KPBX
251455Z AUTO 15003KT 10SM CLR 10/07 A3007 RMK AO2 T00990068
KSJS
251455Z AUTO 21004KT 10SM CLR 12/07 A3007 RMK AO2 T01150067
(11.8 nm NW from KPBX)
KLNP
251455Z AUTO 25005KT 10SM CLR 13/07 A3010 RMK AO2
(34.5 nm SE from KPBX)
TAF Summary (Translated TAF)
KSJS
(46.1 nm NW from KLNP)
251130Z 2512/2612 VRB03KT P6SM FEW250 FM251600 22006KT P6SM SCT030 BKN050
  Airport Weather Conditions for KPBX

Current weather conditions are
not available for PBX


The nearest NOAA weather station
is at SJS, (11.8 nm NW from PBX)
  
 Current Weather at SJS
53° F
Fair
Southwest winds at 4.6 mph
SJS NOAA Radar

Pressure: 30.07 in
Humidity: 73%
Wind: Southwest at 4.6 MPH (4 KT)
Dew Point: 44.1°F
Visibility: 10.00 mi


Airport Weather Forecast for KPBX

Translated METAR and TAF for KLNP
Translated METAR for KLNP (1558 UTC 25 October 2014)
found at http://aviationweather.gov/adds/metars/
 
METAR text: KLNP 251535Z AUTO 24006KT 10SM CLR 14/07 A3010 RMK AO2
Conditions at: KLNP (WISE/LONESOME PI, VA, US) observed 1535 UTC 25 October 2014
Temperature: 14.0°C (57°F)
Dewpoint: 7.0°C (45°F) [RH = 63%]
Pressure (altimeter): 30.10 inches Hg (1019.4 mb)
Winds: from the WSW (240 degrees) at 7 MPH (6 knots; 3.1 m/s)
Visibility: 10 or more miles (16+ km)
Ceiling: at least 12,000 feet AGL
Clouds: sky clear below 12,000 feet AGL
Weather: automated observation with no human augmentation;
there may or may not be significant weather present at this time
Translated TAF for KLNP

There is no translated TAF available for this airport

Find All Airport Services Find A Hotel Find A Rental Car Find A Golf Course Find A Restaurant $100 Hamburger



FBO's on the Field
FBO Company Facility Photos Services Transportation Aviation Fuel Prices: Prices include tax
Catering Weather Repair Courtesy Rental Type 100LL JetA JetA+ MOGAS 8087
 
Pikeville-Pike Airport

This FBO has not yet been rated
FS:Shell
Last Updated: Oct-17
Login to update fuel prices
SS:
Contact Pikeville-Pike AirportMore FBO Information
 
Add another FBO Facility Photos Catering Weather Repair Courtesy Rental Type 100LL JetA JetA+ MOGAS 8087
Services Transportation Aviation Fuel Prices: Prices include tax


model-print
model-print
model-print
model-print